SJX712 VVTS-RCTP
Flight info
| Callsign | SJX712 |
|---|---|
| Flight time | 2h 39m |
| Altitude | 39000 |
| Route | PATMA5G PATMA W12 PCA G221 BUNTA A1 IKELA/N0486F390 DCT MORTU DCT NOBAD DCT KAPLI DCT TONGA TONGA1A |
| Aircraft | A359/H-SDE2E3GHIJ3J4J5LM1ORWXY/LB1D1 |
Departure
| Time | 2026-05-04 16:51 |
|---|---|
| Airport | Tan Son Nhat International Airport (VVTS) |
Arrival
| Time | 2026-05-04 19:30 |
|---|---|
| Airport | Taiwan Taoyuan International Airport (RCTP) |
| Time | Latitude | Longitude | Altitude | Speed | Heading |
|---|---|---|---|---|---|
| 2026-05-04 16:33 | 10.81737 | 106.66310 | 42 ft | 0 kts | 160° |
| 2026-05-04 16:41 | 10.81743 | 106.66308 | 43 ft | 3 kts | 160° |
| 2026-05-04 16:42 | 10.81798 | 106.66284 | 40 ft | 3 kts | 137° |
| 2026-05-04 16:43 | 10.81811 | 106.66248 | 43 ft | 3 kts | 81° |
| 2026-05-04 16:43 | 10.81805 | 106.66225 | 39 ft | 0 kts | 69° |
| 2026-05-04 16:46 | 10.81828 | 106.66285 | 42 ft | 8 kts | 69° |
| 2026-05-04 16:46 | 10.81872 | 106.66400 | 43 ft | 10 kts | 69° |
| 2026-05-04 16:47 | 10.81928 | 106.66547 | 43 ft | 12 kts | 69° |
| 2026-05-04 16:47 | 10.81994 | 106.66724 | 41 ft | 14 kts | 69° |
| 2026-05-04 16:48 | 10.82177 | 106.66982 | 41 ft | 16 kts | 39° |
| 2026-05-04 16:48 | 10.82246 | 106.67009 | 42 ft | 9 kts | 350° |
| 2026-05-04 16:49 | 10.82351 | 106.66929 | 41 ft | 7 kts | 298° |
| 2026-05-04 16:49 | 10.82327 | 106.66839 | 40 ft | 0 kts | 249° |
| 2026-05-04 16:50 | 10.82314 | 106.66804 | 39 ft | 23 kts | 249° |
| 2026-05-04 16:50 | 10.81847 | 106.65566 | 43 ft | 156 kts | 249° |
| 2026-05-04 16:51 | 10.80945 | 106.63214 | 1155 ft | 176 kts | 245° |
| 2026-05-04 16:51 | 10.80503 | 106.62051 | 1726 ft | 181 kts | 245° |
| 2026-05-04 16:51 | 10.79653 | 106.59338 | 2171 ft | 223 kts | 259° |
| 2026-05-04 16:52 | 10.80234 | 106.56013 | 2682 ft | 262 kts | 301° |
| 2026-05-04 16:52 | 10.81386 | 106.54555 | 3128 ft | 267 kts | 323° |
| 2026-05-04 16:53 | 10.84700 | 106.53182 | 4456 ft | 258 kts | 0° |
| 2026-05-04 16:53 | 10.89337 | 106.55461 | 6354 ft | 256 kts | 56° |
| 2026-05-04 16:54 | 10.90115 | 106.57080 | 6998 ft | 256 kts | 74° |
| 2026-05-04 16:55 | 10.89645 | 106.64606 | 9288 ft | 281 kts | 97° |
| 2026-05-04 16:55 | 10.89120 | 106.68653 | 10318 ft | 298 kts | 97° |
| 2026-05-04 16:56 | 10.88618 | 106.73052 | 10854 ft | 328 kts | 91° |
| 2026-05-04 16:56 | 10.89908 | 106.80169 | 11777 ft | 360 kts | 57° |
| 2026-05-04 16:57 | 10.91594 | 106.82033 | 12241 ft | 365 kts | 39° |
| 2026-05-04 16:57 | 10.95801 | 106.85045 | 13188 ft | 374 kts | 35° |
| 2026-05-04 16:58 | 11.02346 | 106.89566 | 14489 ft | 384 kts | 35° |
| 2026-05-04 16:58 | 11.04564 | 106.91101 | 14911 ft | 387 kts | 35° |
| 2026-05-04 16:59 | 11.09043 | 106.94202 | 15745 ft | 393 kts | 35° |
| 2026-05-04 17:00 | 11.18178 | 107.00533 | 17383 ft | 404 kts | 35° |
| 2026-05-04 17:00 | 11.25222 | 107.05418 | 18543 ft | 412 kts | 35° |
| 2026-05-04 17:01 | 11.29965 | 107.08709 | 19274 ft | 417 kts | 35° |
| 2026-05-04 17:01 | 11.34785 | 107.12055 | 19983 ft | 421 kts | 35° |
| 2026-05-04 17:02 | 11.39658 | 107.15439 | 20675 ft | 426 kts | 35° |
| 2026-05-04 17:02 | 11.44588 | 107.18863 | 21396 ft | 431 kts | 35° |
| 2026-05-04 17:03 | 11.47072 | 107.20590 | 21753 ft | 433 kts | 35° |
| 2026-05-04 17:03 | 11.49569 | 107.22325 | 22107 ft | 436 kts | 35° |
| 2026-05-04 17:03 | 11.54601 | 107.25825 | 22834 ft | 441 kts | 34° |
| 2026-05-04 17:04 | 11.59691 | 107.29366 | 23521 ft | 446 kts | 34° |
| 2026-05-04 17:04 | 11.64842 | 107.32951 | 24090 ft | 450 kts | 34° |
| 2026-05-04 17:05 | 11.70044 | 107.36573 | 24683 ft | 454 kts | 34° |
| 2026-05-04 17:05 | 11.75291 | 107.40227 | 25312 ft | 459 kts | 34° |
| 2026-05-04 17:06 | 11.80599 | 107.43927 | 25956 ft | 464 kts | 34° |
| 2026-05-04 17:06 | 11.83272 | 107.45791 | 26320 ft | 467 kts | 34° |
| 2026-05-04 17:07 | 11.88627 | 107.49525 | 27017 ft | 471 kts | 34° |
| 2026-05-04 17:07 | 11.90457 | 107.50802 | 27249 ft | 473 kts | 34° |
| 2026-05-04 17:07 | 11.94070 | 107.53323 | 27703 ft | 477 kts | 34° |
| 2026-05-04 17:07 | 11.96816 | 107.55240 | 28043 ft | 479 kts | 34° |
| 2026-05-04 17:08 | 11.99575 | 107.57167 | 28382 ft | 482 kts | 34° |
| 2026-05-04 17:08 | 12.05142 | 107.61055 | 29040 ft | 487 kts | 34° |
| 2026-05-04 17:08 | 12.07951 | 107.63018 | 29362 ft | 490 kts | 34° |
| 2026-05-04 17:09 | 12.10768 | 107.64987 | 29675 ft | 492 kts | 34° |
| 2026-05-04 17:09 | 12.13606 | 107.66971 | 29960 ft | 495 kts | 34° |
| 2026-05-04 17:09 | 12.16457 | 107.68965 | 30221 ft | 498 kts | 34° |
| 2026-05-04 17:10 | 12.22197 | 107.72980 | 30724 ft | 502 kts | 34° |
| 2026-05-04 17:10 | 12.30895 | 107.79070 | 31454 ft | 508 kts | 34° |
| 2026-05-04 17:11 | 12.33748 | 107.81198 | 31695 ft | 509 kts | 39° |
| 2026-05-04 17:11 | 12.36446 | 107.83561 | 31932 ft | 511 kts | 41° |
| 2026-05-04 17:11 | 12.41700 | 107.88505 | 32406 ft | 513 kts | 43° |
| 2026-05-04 17:12 | 12.44303 | 107.91009 | 32656 ft | 514 kts | 43° |
| 2026-05-04 17:12 | 12.49497 | 107.95993 | 33348 ft | 510 kts | 42° |
| 2026-05-04 17:13 | 12.57293 | 108.03408 | 33885 ft | 516 kts | 41° |
| 2026-05-04 17:14 | 12.65155 | 108.10858 | 34740 ft | 511 kts | 40° |
| 2026-05-04 17:14 | 12.67931 | 108.13125 | 34926 ft | 510 kts | 34° |
| 2026-05-04 17:14 | 12.73696 | 108.17330 | 35418 ft | 508 kts | 33° |
| 2026-05-04 17:15 | 12.76597 | 108.19386 | 35652 ft | 507 kts | 33° |
| 2026-05-04 17:15 | 12.82403 | 108.23478 | 36095 ft | 506 kts | 33° |
| 2026-05-04 17:16 | 12.88195 | 108.27572 | 36498 ft | 506 kts | 33° |
| 2026-05-04 17:16 | 12.96857 | 108.33721 | 37089 ft | 504 kts | 33° |
| 2026-05-04 17:17 | 12.99740 | 108.35770 | 37280 ft | 504 kts | 33° |
| 2026-05-04 17:17 | 13.08367 | 108.41906 | 37846 ft | 502 kts | 32° |
| 2026-05-04 17:18 | 13.11235 | 108.43947 | 38019 ft | 502 kts | 33° |
| 2026-05-04 17:18 | 13.16968 | 108.48028 | 38337 ft | 501 kts | 32° |
| 2026-05-04 17:19 | 13.22701 | 108.52112 | 38611 ft | 501 kts | 32° |
| 2026-05-04 17:19 | 13.28425 | 108.56191 | 38860 ft | 500 kts | 32° |
| 2026-05-04 17:20 | 13.34146 | 108.60273 | 38978 ft | 503 kts | 32° |
| 2026-05-04 17:20 | 13.42776 | 108.66420 | 38979 ft | 503 kts | 32° |
| 2026-05-04 17:21 | 13.54271 | 108.74613 | 38971 ft | 502 kts | 32° |
| 2026-05-04 17:22 | 13.60012 | 108.78712 | 38970 ft | 502 kts | 32° |
| 2026-05-04 17:23 | 13.71465 | 108.86892 | 38970 ft | 503 kts | 32° |
| 2026-05-04 17:24 | 13.80092 | 108.93064 | 38970 ft | 504 kts | 32° |
| 2026-05-04 17:25 | 13.91608 | 109.01271 | 38961 ft | 503 kts | 30° |
| 2026-05-04 17:25 | 13.97907 | 109.04207 | 38966 ft | 495 kts | 12° |
| 2026-05-04 17:26 | 14.04655 | 109.05429 | 38968 ft | 492 kts | 5° |
| 2026-05-04 17:27 | 14.21657 | 109.07421 | 38968 ft | 492 kts | 4° |
| 2026-05-04 17:28 | 14.35248 | 109.09061 | 38968 ft | 492 kts | 4° |
| 2026-05-04 17:29 | 14.55638 | 109.11546 | 38972 ft | 492 kts | 4° |
| 2026-05-04 17:31 | 14.72573 | 109.13611 | 38965 ft | 491 kts | 4° |
| 2026-05-04 17:32 | 14.88455 | 109.15551 | 38964 ft | 493 kts | 4° |
| 2026-05-04 17:33 | 15.02035 | 109.17212 | 38960 ft | 493 kts | 4° |
| 2026-05-04 17:34 | 15.15660 | 109.18881 | 38963 ft | 493 kts | 4° |
| 2026-05-04 17:35 | 15.32687 | 109.20969 | 38958 ft | 493 kts | 4° |
| 2026-05-04 17:36 | 15.39503 | 109.21806 | 38961 ft | 493 kts | 4° |
| 2026-05-04 17:36 | 15.46310 | 109.22642 | 38960 ft | 493 kts | 4° |
| 2026-05-04 17:37 | 15.53127 | 109.23480 | 38959 ft | 494 kts | 3° |
| 2026-05-04 17:37 | 15.59961 | 109.24321 | 38958 ft | 495 kts | 3° |
| 2026-05-04 17:38 | 15.66802 | 109.25167 | 38958 ft | 496 kts | 3° |
| 2026-05-04 17:38 | 15.73649 | 109.26001 | 38955 ft | 495 kts | 3° |
| 2026-05-04 17:39 | 15.83917 | 109.27255 | 38963 ft | 495 kts | 3° |
| 2026-05-04 17:39 | 15.90704 | 109.28087 | 38956 ft | 494 kts | 3° |
| 2026-05-04 17:40 | 15.97522 | 109.28923 | 38959 ft | 493 kts | 3° |
| 2026-05-04 17:40 | 16.04337 | 109.29759 | 38955 ft | 493 kts | 3° |
| 2026-05-04 17:41 | 16.11161 | 109.30598 | 38952 ft | 493 kts | 3° |
| 2026-05-04 17:41 | 16.17976 | 109.31435 | 38958 ft | 494 kts | 2° |
| 2026-05-04 17:42 | 16.24810 | 109.32275 | 38955 ft | 495 kts | 3° |
| 2026-05-04 17:42 | 16.31650 | 109.33117 | 38958 ft | 495 kts | 3° |
| 2026-05-04 17:43 | 16.38485 | 109.33959 | 38959 ft | 495 kts | 3° |
| 2026-05-04 17:43 | 16.45325 | 109.34803 | 38958 ft | 495 kts | 3° |
| 2026-05-04 17:44 | 16.52168 | 109.35647 | 38961 ft | 496 kts | 2° |
| 2026-05-04 17:44 | 16.59024 | 109.36492 | 38957 ft | 497 kts | 2° |
| 2026-05-04 17:45 | 16.65899 | 109.37342 | 38956 ft | 497 kts | 2° |
| 2026-05-04 17:45 | 16.72774 | 109.38193 | 38961 ft | 497 kts | 2° |
| 2026-05-04 17:46 | 16.79523 | 109.39941 | 38957 ft | 506 kts | 19° |
| 2026-05-04 17:46 | 16.85515 | 109.43883 | 38958 ft | 517 kts | 40° |
| 2026-05-04 17:47 | 16.87928 | 109.46624 | 38960 ft | 522 kts | 51° |
| 2026-05-04 17:47 | 16.90075 | 109.49683 | 38960 ft | 523 kts | 52° |
| 2026-05-04 17:47 | 16.94150 | 109.55996 | 38953 ft | 524 kts | 54° |
| 2026-05-04 17:48 | 16.98167 | 109.62355 | 38959 ft | 524 kts | 54° |
| 2026-05-04 17:48 | 17.02215 | 109.68691 | 38959 ft | 524 kts | 53° |
| 2026-05-04 17:49 | 17.06286 | 109.75013 | 38965 ft | 524 kts | 53° |
| 2026-05-04 17:49 | 17.10361 | 109.81332 | 38968 ft | 524 kts | 53° |
| 2026-05-04 17:50 | 17.14422 | 109.87639 | 38964 ft | 523 kts | 53° |
| 2026-05-04 17:50 | 17.18479 | 109.93946 | 38954 ft | 523 kts | 53° |
| 2026-05-04 17:51 | 17.22536 | 110.00261 | 38964 ft | 523 kts | 53° |
| 2026-05-04 17:51 | 17.26584 | 110.06567 | 38964 ft | 523 kts | 53° |
| 2026-05-04 17:52 | 17.30616 | 110.12855 | 38953 ft | 523 kts | 53° |
| 2026-05-04 17:52 | 17.34657 | 110.19162 | 38964 ft | 523 kts | 53° |
| 2026-05-04 17:53 | 17.38733 | 110.25528 | 38956 ft | 523 kts | 53° |
| 2026-05-04 17:53 | 17.42739 | 110.31791 | 38967 ft | 522 kts | 53° |
| 2026-05-04 17:54 | 17.46810 | 110.38072 | 38963 ft | 521 kts | 53° |
| 2026-05-04 17:54 | 17.50898 | 110.44347 | 38956 ft | 521 kts | 53° |
| 2026-05-04 17:55 | 17.54977 | 110.50624 | 38950 ft | 522 kts | 53° |
| 2026-05-04 17:55 | 17.59055 | 110.56917 | 38957 ft | 522 kts | 53° |
| 2026-05-04 17:56 | 17.63129 | 110.63214 | 38960 ft | 522 kts | 53° |
| 2026-05-04 17:56 | 17.67199 | 110.69510 | 38965 ft | 522 kts | 53° |
| 2026-05-04 17:57 | 17.71269 | 110.75811 | 38962 ft | 522 kts | 53° |
| 2026-05-04 17:57 | 17.75337 | 110.82116 | 38969 ft | 522 kts | 53° |
| 2026-05-04 17:58 | 17.79410 | 110.88434 | 38964 ft | 522 kts | 53° |
| 2026-05-04 17:58 | 17.83476 | 110.94748 | 38953 ft | 522 kts | 53° |
| 2026-05-04 17:59 | 17.87542 | 111.01066 | 38964 ft | 522 kts | 53° |
| 2026-05-04 18:00 | 17.93605 | 111.10501 | 38963 ft | 522 kts | 53° |
| 2026-05-04 18:00 | 17.97687 | 111.16860 | 38964 ft | 523 kts | 53° |
| 2026-05-04 18:01 | 18.01753 | 111.23201 | 38961 ft | 523 kts | 53° |
| 2026-05-04 18:01 | 18.05792 | 111.29505 | 38960 ft | 523 kts | 53° |
| 2026-05-04 18:02 | 18.11888 | 111.39032 | 38960 ft | 523 kts | 53° |
| 2026-05-04 18:02 | 18.15947 | 111.45383 | 38960 ft | 523 kts | 53° |
| 2026-05-04 18:03 | 18.20006 | 111.51741 | 38972 ft | 523 kts | 53° |
| 2026-05-04 18:03 | 18.24063 | 111.58101 | 38960 ft | 524 kts | 53° |
| 2026-05-04 18:04 | 18.28129 | 111.64481 | 38960 ft | 525 kts | 53° |
| 2026-05-04 18:05 | 18.34218 | 111.74048 | 38956 ft | 525 kts | 53° |
| 2026-05-04 18:05 | 18.38275 | 111.80431 | 38956 ft | 525 kts | 53° |
| 2026-05-04 18:06 | 18.44351 | 111.90003 | 38961 ft | 524 kts | 53° |
| 2026-05-04 18:06 | 18.48398 | 111.96385 | 38963 ft | 524 kts | 53° |
| 2026-05-04 18:07 | 18.52443 | 112.02771 | 38957 ft | 525 kts | 53° |
| 2026-05-04 18:07 | 18.56491 | 112.09167 | 38958 ft | 525 kts | 53° |
| 2026-05-04 18:08 | 18.60540 | 112.15570 | 38959 ft | 525 kts | 53° |
| 2026-05-04 18:08 | 18.64579 | 112.21968 | 38955 ft | 524 kts | 53° |
| 2026-05-04 18:09 | 18.71666 | 112.35452 | 38960 ft | 526 kts | 60° |
| 2026-05-04 18:10 | 18.75060 | 112.42304 | 38959 ft | 528 kts | 60° |
| 2026-05-04 18:10 | 18.78467 | 112.49180 | 38958 ft | 529 kts | 60° |
| 2026-05-04 18:11 | 18.81876 | 112.56053 | 38957 ft | 528 kts | 60° |
| 2026-05-04 18:11 | 18.85281 | 112.62919 | 38958 ft | 528 kts | 60° |
| 2026-05-04 18:12 | 18.88686 | 112.69790 | 38960 ft | 528 kts | 60° |
| 2026-05-04 18:12 | 18.92065 | 112.76616 | 38955 ft | 528 kts | 60° |
| 2026-05-04 18:13 | 18.95463 | 112.83492 | 38955 ft | 527 kts | 60° |
| 2026-05-04 18:14 | 19.00553 | 112.93804 | 38956 ft | 529 kts | 60° |
| 2026-05-04 18:14 | 19.03953 | 113.00701 | 38956 ft | 530 kts | 60° |
| 2026-05-04 18:15 | 19.10749 | 113.14515 | 38961 ft | 529 kts | 60° |
| 2026-05-04 18:16 | 19.14143 | 113.21425 | 38957 ft | 529 kts | 60° |
| 2026-05-04 18:16 | 19.17527 | 113.28324 | 38958 ft | 529 kts | 60° |
| 2026-05-04 18:17 | 19.22607 | 113.38694 | 38955 ft | 529 kts | 60° |
| 2026-05-04 18:18 | 19.27676 | 113.49061 | 38962 ft | 529 kts | 60° |
| 2026-05-04 18:18 | 19.31054 | 113.55977 | 38958 ft | 529 kts | 60° |
| 2026-05-04 18:19 | 19.35540 | 113.65177 | 38955 ft | 529 kts | 60° |
| 2026-05-04 18:19 | 19.39465 | 113.73238 | 38958 ft | 529 kts | 60° |
| 2026-05-04 18:20 | 19.42834 | 113.80166 | 38955 ft | 529 kts | 60° |
| 2026-05-04 18:20 | 19.45654 | 113.85973 | 38955 ft | 529 kts | 60° |
| 2026-05-04 18:21 | 19.49018 | 113.92908 | 38962 ft | 529 kts | 60° |
| 2026-05-04 18:21 | 19.52359 | 113.99802 | 38960 ft | 530 kts | 60° |
| 2026-05-04 18:22 | 19.55723 | 114.06751 | 38955 ft | 530 kts | 60° |
| 2026-05-04 18:22 | 19.59085 | 114.13704 | 38958 ft | 530 kts | 60° |
| 2026-05-04 18:23 | 19.62445 | 114.20664 | 38958 ft | 530 kts | 60° |
| 2026-05-04 18:23 | 19.65791 | 114.27602 | 38957 ft | 530 kts | 60° |
| 2026-05-04 18:24 | 19.69147 | 114.34570 | 38960 ft | 530 kts | 60° |
| 2026-05-04 18:24 | 19.72492 | 114.41526 | 38961 ft | 530 kts | 60° |
| 2026-05-04 18:25 | 19.75847 | 114.48511 | 38961 ft | 531 kts | 60° |
| 2026-05-04 18:25 | 19.79198 | 114.55499 | 38961 ft | 531 kts | 60° |
| 2026-05-04 18:26 | 19.82550 | 114.62496 | 38958 ft | 531 kts | 60° |
| 2026-05-04 18:26 | 19.85897 | 114.69492 | 38961 ft | 531 kts | 60° |
| 2026-05-04 18:27 | 19.89244 | 114.76499 | 38963 ft | 531 kts | 60° |
| 2026-05-04 18:27 | 19.92586 | 114.83501 | 38960 ft | 531 kts | 60° |
| 2026-05-04 18:28 | 19.95925 | 114.90505 | 38966 ft | 532 kts | 60° |
| 2026-05-04 18:28 | 19.99269 | 114.97528 | 38962 ft | 533 kts | 60° |
| 2026-05-04 18:29 | 20.02616 | 115.04569 | 38960 ft | 533 kts | 60° |
| 2026-05-04 18:29 | 20.05959 | 115.11611 | 38961 ft | 534 kts | 60° |
| 2026-05-04 18:30 | 20.10952 | 115.22142 | 38964 ft | 534 kts | 60° |
| 2026-05-04 18:31 | 20.14293 | 115.29200 | 38963 ft | 534 kts | 60° |
| 2026-05-04 18:31 | 20.17629 | 115.36258 | 38961 ft | 533 kts | 61° |
| 2026-05-04 18:32 | 20.20960 | 115.43312 | 38960 ft | 533 kts | 61° |
| 2026-05-04 18:32 | 20.24283 | 115.50361 | 38966 ft | 533 kts | 61° |
| 2026-05-04 18:33 | 20.27605 | 115.57424 | 38964 ft | 533 kts | 61° |
| 2026-05-04 18:33 | 20.30926 | 115.64477 | 38959 ft | 533 kts | 61° |
| 2026-05-04 18:34 | 20.34247 | 115.71539 | 38964 ft | 533 kts | 61° |
| 2026-05-04 18:34 | 20.37561 | 115.78602 | 38969 ft | 533 kts | 61° |
| 2026-05-04 18:35 | 20.40873 | 115.85669 | 38976 ft | 533 kts | 61° |
| 2026-05-04 18:35 | 20.44185 | 115.92745 | 38965 ft | 534 kts | 61° |
| 2026-05-04 18:36 | 20.47494 | 115.99825 | 38966 ft | 534 kts | 61° |
| 2026-05-04 18:36 | 20.50782 | 116.06867 | 38969 ft | 534 kts | 61° |
| 2026-05-04 18:37 | 20.54092 | 116.13967 | 38969 ft | 534 kts | 61° |
| 2026-05-04 18:37 | 20.57396 | 116.21064 | 38969 ft | 534 kts | 61° |
| 2026-05-04 18:38 | 20.60696 | 116.28159 | 38968 ft | 534 kts | 61° |
| 2026-05-04 18:38 | 20.63984 | 116.35241 | 38971 ft | 534 kts | 61° |
| 2026-05-04 18:39 | 20.67269 | 116.42322 | 38969 ft | 535 kts | 61° |
| 2026-05-04 18:39 | 20.70545 | 116.49397 | 38969 ft | 535 kts | 61° |
| 2026-05-04 18:40 | 20.73840 | 116.56520 | 38970 ft | 535 kts | 61° |
| 2026-05-04 18:40 | 20.77135 | 116.63652 | 38972 ft | 535 kts | 61° |
| 2026-05-04 18:41 | 20.80425 | 116.70783 | 38970 ft | 535 kts | 62° |
| 2026-05-04 18:41 | 20.83713 | 116.77919 | 38972 ft | 535 kts | 62° |
| 2026-05-04 18:42 | 20.86975 | 116.85009 | 38978 ft | 535 kts | 62° |
| 2026-05-04 18:42 | 20.90258 | 116.92153 | 38968 ft | 535 kts | 62° |
| 2026-05-04 18:43 | 20.93536 | 116.99297 | 38973 ft | 535 kts | 62° |
| 2026-05-04 18:43 | 20.96812 | 117.06446 | 38975 ft | 535 kts | 62° |
| 2026-05-04 18:44 | 21.00086 | 117.13601 | 38968 ft | 535 kts | 62° |
| 2026-05-04 18:44 | 21.03356 | 117.20755 | 38971 ft | 535 kts | 62° |
| 2026-05-04 18:45 | 21.06627 | 117.27920 | 38990 ft | 535 kts | 62° |
| 2026-05-04 18:45 | 21.09891 | 117.35083 | 38977 ft | 535 kts | 62° |
| 2026-05-04 18:46 | 21.13151 | 117.42245 | 38977 ft | 535 kts | 62° |
| 2026-05-04 18:46 | 21.16683 | 117.49213 | 38978 ft | 531 kts | 51° |
| 2026-05-04 18:47 | 21.21624 | 117.55007 | 38984 ft | 526 kts | 40° |
| 2026-05-04 18:47 | 21.26911 | 117.60430 | 38965 ft | 527 kts | 40° |
| 2026-05-04 18:48 | 21.32215 | 117.65850 | 38978 ft | 526 kts | 40° |
| 2026-05-04 18:48 | 21.37514 | 117.71268 | 38979 ft | 526 kts | 40° |
| 2026-05-04 18:49 | 21.42803 | 117.76682 | 38988 ft | 526 kts | 40° |
| 2026-05-04 18:49 | 21.48095 | 117.82103 | 38985 ft | 526 kts | 40° |
| 2026-05-04 18:50 | 21.53381 | 117.87525 | 38986 ft | 526 kts | 40° |
| 2026-05-04 18:50 | 21.58622 | 117.92906 | 38989 ft | 525 kts | 40° |
| 2026-05-04 18:51 | 21.63904 | 117.98334 | 38991 ft | 525 kts | 40° |
| 2026-05-04 18:51 | 21.69186 | 118.03769 | 38994 ft | 525 kts | 40° |
| 2026-05-04 18:52 | 21.74464 | 118.09204 | 38991 ft | 526 kts | 40° |
| 2026-05-04 18:52 | 21.79748 | 118.14653 | 39012 ft | 526 kts | 40° |
| 2026-05-04 18:53 | 21.85031 | 118.20107 | 38996 ft | 526 kts | 40° |
| 2026-05-04 18:53 | 21.90316 | 118.25567 | 38999 ft | 526 kts | 40° |
| 2026-05-04 18:54 | 21.95593 | 118.31026 | 38991 ft | 526 kts | 40° |
| 2026-05-04 18:54 | 22.00879 | 118.36500 | 38999 ft | 527 kts | 40° |
| 2026-05-04 18:55 | 22.06163 | 118.41977 | 39003 ft | 527 kts | 40° |
| 2026-05-04 18:55 | 22.14106 | 118.50223 | 38998 ft | 529 kts | 40° |
| 2026-05-04 18:56 | 22.19402 | 118.55728 | 38999 ft | 529 kts | 40° |
| 2026-05-04 18:56 | 22.24659 | 118.61199 | 38998 ft | 529 kts | 40° |
| 2026-05-04 18:57 | 22.29955 | 118.66718 | 39003 ft | 529 kts | 40° |
| 2026-05-04 18:57 | 22.35255 | 118.72245 | 39004 ft | 530 kts | 40° |
| 2026-05-04 18:58 | 22.40560 | 118.77784 | 39002 ft | 530 kts | 40° |
| 2026-05-04 18:58 | 22.45864 | 118.83329 | 38998 ft | 530 kts | 40° |
| 2026-05-04 18:59 | 22.51166 | 118.88877 | 39001 ft | 530 kts | 40° |
| 2026-05-04 18:59 | 22.56468 | 118.94432 | 38998 ft | 530 kts | 40° |
| 2026-05-04 19:00 | 22.61768 | 118.99990 | 39000 ft | 530 kts | 40° |
| 2026-05-04 19:00 | 22.67064 | 119.05552 | 39004 ft | 530 kts | 40° |
| 2026-05-04 19:01 | 22.72360 | 119.11119 | 39001 ft | 530 kts | 40° |
| 2026-05-04 19:01 | 22.77649 | 119.16686 | 39002 ft | 531 kts | 40° |
| 2026-05-04 19:02 | 22.82928 | 119.22246 | 38997 ft | 532 kts | 40° |
| 2026-05-04 19:02 | 22.88234 | 119.27844 | 38997 ft | 532 kts | 40° |
| 2026-05-04 19:03 | 22.93540 | 119.33448 | 39001 ft | 532 kts | 40° |
| 2026-05-04 19:03 | 22.98844 | 119.39056 | 39006 ft | 532 kts | 40° |
| 2026-05-04 19:04 | 23.04152 | 119.44673 | 38998 ft | 534 kts | 40° |
| 2026-05-04 19:04 | 23.09470 | 119.50309 | 38993 ft | 534 kts | 40° |
| 2026-05-04 19:05 | 23.14787 | 119.55951 | 38998 ft | 534 kts | 40° |
| 2026-05-04 19:05 | 23.20567 | 119.60874 | 38998 ft | 524 kts | 25° |
| 2026-05-04 19:06 | 23.26816 | 119.64826 | 39003 ft | 523 kts | 24° |
| 2026-05-04 19:06 | 23.33125 | 119.68783 | 39006 ft | 524 kts | 24° |
| 2026-05-04 19:07 | 23.39436 | 119.72756 | 39012 ft | 524 kts | 24° |
| 2026-05-04 19:07 | 23.42578 | 119.74738 | 38860 ft | 520 kts | 24° |
| 2026-05-04 19:07 | 23.45706 | 119.76713 | 38132 ft | 521 kts | 24° |
| 2026-05-04 19:08 | 23.48860 | 119.78706 | 37221 ft | 527 kts | 24° |
| 2026-05-04 19:08 | 23.52005 | 119.80820 | 36243 ft | 535 kts | 26° |
| 2026-05-04 19:08 | 23.55161 | 119.83018 | 35292 ft | 542 kts | 26° |
| 2026-05-04 19:08 | 23.58351 | 119.85238 | 34396 ft | 547 kts | 26° |
| 2026-05-04 19:09 | 23.61583 | 119.87479 | 33448 ft | 552 kts | 26° |
| 2026-05-04 19:09 | 23.64837 | 119.89730 | 32491 ft | 556 kts | 27° |
| 2026-05-04 19:09 | 23.68103 | 119.91988 | 31610 ft | 558 kts | 27° |
| 2026-05-04 19:09 | 23.70280 | 119.93493 | 31081 ft | 558 kts | 27° |
| 2026-05-04 19:10 | 23.73553 | 119.95755 | 30399 ft | 557 kts | 27° |
| 2026-05-04 19:10 | 23.75760 | 119.97282 | 29950 ft | 555 kts | 27° |
| 2026-05-04 19:10 | 23.80076 | 120.00268 | 29069 ft | 549 kts | 27° |
| 2026-05-04 19:10 | 23.83254 | 120.02471 | 28098 ft | 536 kts | 27° |
| 2026-05-04 19:11 | 23.86383 | 120.04637 | 26968 ft | 530 kts | 28° |
| 2026-05-04 19:11 | 23.89497 | 120.06791 | 26370 ft | 527 kts | 28° |
| 2026-05-04 19:11 | 23.92573 | 120.08923 | 25938 ft | 520 kts | 28° |
| 2026-05-04 19:11 | 23.95592 | 120.11017 | 25334 ft | 508 kts | 28° |
| 2026-05-04 19:12 | 23.98562 | 120.13076 | 24309 ft | 506 kts | 28° |
| 2026-05-04 19:12 | 24.04470 | 120.17174 | 23205 ft | 494 kts | 28° |
| 2026-05-04 19:12 | 24.07329 | 120.19164 | 22112 ft | 484 kts | 28° |
| 2026-05-04 19:13 | 24.10158 | 120.21130 | 20943 ft | 478 kts | 28° |
| 2026-05-04 19:13 | 24.12935 | 120.23066 | 19882 ft | 470 kts | 28° |
| 2026-05-04 19:13 | 24.15670 | 120.24970 | 18907 ft | 461 kts | 28° |
| 2026-05-04 19:13 | 24.18328 | 120.26820 | 18322 ft | 443 kts | 28° |
| 2026-05-04 19:14 | 24.20873 | 120.28595 | 17778 ft | 424 kts | 28° |
| 2026-05-04 19:14 | 24.23302 | 120.30290 | 17314 ft | 406 kts | 28° |
| 2026-05-04 19:14 | 24.25673 | 120.31940 | 16857 ft | 402 kts | 28° |
| 2026-05-04 19:14 | 24.28028 | 120.33577 | 16397 ft | 400 kts | 28° |
| 2026-05-04 19:15 | 24.30372 | 120.35210 | 15953 ft | 398 kts | 28° |
| 2026-05-04 19:15 | 24.32671 | 120.36812 | 15501 ft | 396 kts | 28° |
| 2026-05-04 19:15 | 24.35016 | 120.38449 | 15051 ft | 394 kts | 28° |
| 2026-05-04 19:15 | 24.37335 | 120.40068 | 14595 ft | 396 kts | 29° |
| 2026-05-04 19:16 | 24.39644 | 120.41681 | 14142 ft | 392 kts | 29° |
| 2026-05-04 19:16 | 24.41913 | 120.43270 | 13707 ft | 391 kts | 29° |
| 2026-05-04 19:16 | 24.44212 | 120.44881 | 13244 ft | 391 kts | 28° |
| 2026-05-04 19:16 | 24.46524 | 120.46472 | 12741 ft | 395 kts | 29° |
| 2026-05-04 19:17 | 24.48839 | 120.48110 | 12265 ft | 395 kts | 30° |
| 2026-05-04 19:17 | 24.51137 | 120.49736 | 11802 ft | 390 kts | 30° |
| 2026-05-04 19:17 | 24.53400 | 120.51321 | 11392 ft | 382 kts | 30° |
| 2026-05-04 19:17 | 24.55599 | 120.52863 | 11246 ft | 367 kts | 30° |
| 2026-05-04 19:18 | 24.57703 | 120.54339 | 11119 ft | 353 kts | 29° |
| 2026-05-04 19:18 | 24.59738 | 120.55766 | 10980 ft | 340 kts | 29° |
| 2026-05-04 19:18 | 24.61690 | 120.57138 | 10838 ft | 328 kts | 29° |
| 2026-05-04 19:18 | 24.63593 | 120.58473 | 10553 ft | 322 kts | 29° |
| 2026-05-04 19:19 | 24.65470 | 120.59790 | 10228 ft | 318 kts | 30° |
| 2026-05-04 19:19 | 24.67306 | 120.61129 | 9898 ft | 316 kts | 35° |
| 2026-05-04 19:19 | 24.69000 | 120.62679 | 9570 ft | 319 kts | 39° |
| 2026-05-04 19:19 | 24.70654 | 120.64302 | 9256 ft | 317 kts | 40° |
| 2026-05-04 19:20 | 24.72290 | 120.65918 | 8951 ft | 315 kts | 40° |
| 2026-05-04 19:20 | 24.73914 | 120.67521 | 8651 ft | 312 kts | 40° |
| 2026-05-04 19:20 | 24.75514 | 120.69118 | 8444 ft | 310 kts | 42° |
| 2026-05-04 19:20 | 24.76872 | 120.70955 | 8165 ft | 311 kts | 58° |
| 2026-05-04 19:21 | 24.77959 | 120.73023 | 7850 ft | 313 kts | 62° |
| 2026-05-04 19:21 | 24.78977 | 120.75129 | 7592 ft | 310 kts | 62° |
| 2026-05-04 19:21 | 24.79973 | 120.77222 | 7227 ft | 308 kts | 62° |
| 2026-05-04 19:21 | 24.80957 | 120.79296 | 6847 ft | 305 kts | 63° |
| 2026-05-04 19:22 | 24.81931 | 120.81359 | 6457 ft | 303 kts | 63° |
| 2026-05-04 19:22 | 24.82897 | 120.83415 | 6049 ft | 301 kts | 63° |
| 2026-05-04 19:22 | 24.83849 | 120.85448 | 5726 ft | 296 kts | 63° |
| 2026-05-04 19:22 | 24.84785 | 120.87450 | 5363 ft | 292 kts | 64° |
| 2026-05-04 19:23 | 24.85711 | 120.89434 | 5047 ft | 291 kts | 64° |
| 2026-05-04 19:23 | 24.86628 | 120.91399 | 4773 ft | 285 kts | 64° |
| 2026-05-04 19:23 | 24.87515 | 120.93302 | 4638 ft | 274 kts | 64° |
| 2026-05-04 19:23 | 24.88364 | 120.95122 | 4503 ft | 262 kts | 64° |
| 2026-05-04 19:24 | 24.89180 | 120.96873 | 4369 ft | 251 kts | 64° |
| 2026-05-04 19:24 | 24.89960 | 120.98550 | 4230 ft | 241 kts | 64° |
| 2026-05-04 19:24 | 24.90699 | 121.00138 | 4101 ft | 231 kts | 64° |
| 2026-05-04 19:24 | 24.91557 | 121.01608 | 4026 ft | 228 kts | 51° |
| 2026-05-04 19:25 | 24.92592 | 121.02916 | 4008 ft | 216 kts | 49° |
| 2026-05-04 19:25 | 24.93555 | 121.04135 | 3992 ft | 208 kts | 49° |
| 2026-05-04 19:25 | 24.94487 | 121.05332 | 3875 ft | 208 kts | 50° |
| 2026-05-04 19:25 | 24.95396 | 121.06552 | 3622 ft | 204 kts | 49° |
| 2026-05-04 19:26 | 24.96319 | 121.07721 | 3339 ft | 201 kts | 48° |
| 2026-05-04 19:26 | 24.97237 | 121.08872 | 3054 ft | 198 kts | 48° |
| 2026-05-04 19:26 | 24.98133 | 121.10008 | 2783 ft | 194 kts | 48° |
| 2026-05-04 19:26 | 24.99004 | 121.11114 | 2530 ft | 189 kts | 47° |
| 2026-05-04 19:27 | 24.99849 | 121.12183 | 2288 ft | 180 kts | 47° |
| 2026-05-04 19:27 | 25.00651 | 121.13199 | 2053 ft | 171 kts | 47° |
| 2026-05-04 19:27 | 25.01407 | 121.14157 | 1831 ft | 161 kts | 48° |
| 2026-05-04 19:27 | 25.02117 | 121.15057 | 1644 ft | 151 kts | 48° |
| 2026-05-04 19:28 | 25.02799 | 121.15920 | 1427 ft | 148 kts | 49° |
| 2026-05-04 19:28 | 25.03474 | 121.16773 | 1247 ft | 147 kts | 49° |
| 2026-05-04 19:28 | 25.04144 | 121.17620 | 1047 ft | 146 kts | 48° |
| 2026-05-04 19:28 | 25.04815 | 121.18448 | 816 ft | 143 kts | 47° |
| 2026-05-04 19:29 | 25.05487 | 121.19243 | 645 ft | 143 kts | 51° |
| 2026-05-04 19:29 | 25.06113 | 121.20073 | 420 ft | 135 kts | 51° |
| 2026-05-04 19:29 | 25.06703 | 121.20851 | 332 ft | 136 kts | 51° |
| 2026-05-04 19:29 | 25.07337 | 121.21637 | 162 ft | 138 kts | 52° |
| 2026-05-04 19:30 | 25.07940 | 121.22422 | 108 ft | 123 kts | 50° |
| 2026-05-04 19:30 | 25.08419 | 121.23034 | 104 ft | 89 kts | 49° |
| 2026-05-04 19:30 | 25.08702 | 121.23389 | 105 ft | 21 kts | 50° |
| 2026-05-04 19:30 | 25.08774 | 121.23483 | 105 ft | 16 kts | 49° |
| 2026-05-04 19:31 | 25.08850 | 121.23581 | 105 ft | 18 kts | 50° |
| 2026-05-04 19:31 | 25.08918 | 121.23717 | 106 ft | 23 kts | 70° |
| 2026-05-04 19:31 | 25.08954 | 121.23861 | 105 ft | 16 kts | 77° |
| 2026-05-04 19:31 | 25.08933 | 121.23963 | 105 ft | 14 kts | 147° |
| 2026-05-04 19:32 | 25.08864 | 121.23925 | 104 ft | 13 kts | 230° |
| 2026-05-04 19:32 | 25.08806 | 121.23850 | 104 ft | 13 kts | 230° |
| 2026-05-04 19:32 | 25.08744 | 121.23770 | 104 ft | 15 kts | 229° |
| 2026-05-04 19:32 | 25.08678 | 121.23687 | 106 ft | 15 kts | 228° |
| 2026-05-04 19:33 | 25.08620 | 121.23614 | 106 ft | 12 kts | 229° |
| 2026-05-04 19:33 | 25.08560 | 121.23538 | 106 ft | 14 kts | 231° |
| 2026-05-04 19:33 | 25.08525 | 121.23490 | 105 ft | 4 kts | 231° |
| 2026-05-04 19:33 | 25.08482 | 121.23472 | 105 ft | 9 kts | 168° |
| 2026-05-04 19:34 | 25.08441 | 121.23519 | 105 ft | 9 kts | 98° |
| 2026-05-04 19:34 | 25.08433 | 121.23583 | 105 ft | 9 kts | 121° |
| 2026-05-04 19:34 | 25.08399 | 121.23619 | 106 ft | 1 kts | 138° |
| 2026-05-04 19:34 | 25.08380 | 121.23637 | 104 ft | 6 kts | 139° |
| 2026-05-04 19:35 | 25.08365 | 121.23652 | 105 ft | 1 kts | 139° |
| 2026-05-04 19:35 | 25.08360 | 121.23656 | 106 ft | 0 kts | 139° |
| 2026-05-04 19:35 | 25.08356 | 121.23660 | 105 ft | 1 kts | 139° |
| 2026-05-04 19:35 | 25.08356 | 121.23661 | 105 ft | 0 kts | 139° |